Curtis, Texas
Current Conditions -  °F | °C
As of 4:15 AM on Thursday 18 Dec 2014 (Local Time) from KJAS Reporting Station
Overcast Overcast  
Wind Chill: 53°   Ceiling: 1200
Heat Index: 53°   Visibility: 10mi
Dew Point: 46°   Wind: 0mph
Humidity: 78%   Direction: NA
Pressure: 30.12"   Gusts: NA
Location:  30.9529°N, 94.0707°W
Report Text: KJAS 181015Z AUTO 00000KT 10SM OVC012 12/08 A3012 RMK AO2 T01170080
Loading
Personal Weather Stations






























Interactive Weather Map New forecast layout! Learn more

10-Day Weather Forecast

Advertisements
Track Severe Weather on mobile